Time;durP1;ratioP1;P1;durP2;ratioP2;P2;SDS_P1;SDS_P2;PMS_P1;PMS_P2;Temp;Humidity;BMP_temperature;BMP_pressure;BME280_temperature;BME280_humidity;BME280_pressure;Samples;Min_cycle;Max_cycle;Signal;HPM_P1;HPM_P2
2022/01/04 05:02:28;;;;;;;2.27;1.77;;;10.80;99.90;;;;;;5092357;23;20499;-79
2022/01/04 05:04:55;;;;;;;1.80;1.70;;;10.80;99.90;;;;;;4997239;28;20466;-79
2022/01/04 05:07:22;;;;;;;4.67;1.50;;;10.80;99.90;;;;;;4997428;28;20521;-79
2022/01/04 05:09:49;;;;;;;1.60;1.50;;;10.80;99.90;;;;;;4996356;28;20542;-80
2022/01/04 05:12:15;;;;;;;1.90;1.80;;;10.80;99.90;;;;;;4997462;28;20558;-80
2022/01/04 05:14:45;;;;;;;2.80;1.80;;;10.80;99.90;;;;;;4997375;28;20538;-78
2022/01/04 05:17:13;;;;;;;1.80;1.70;;;10.80;99.90;;;;;;4992379;28;20495;-79
2022/01/04 05:19:42;;;;;;;1.63;1.53;;;10.80;99.90;;;;;;4992024;28;20466;-78
2022/01/04 05:22:09;;;;;;;2.67;2.03;;;10.80;99.90;;;;;;4992023;28;20558;-78
2022/01/04 05:24:36;;;;;;;2.50;1.50;;;10.80;99.90;;;;;;4992237;28;20461;-78
2022/01/04 05:27:04;;;;;;;2.33;1.57;;;10.80;99.90;;;;;;4992356;28;20491;-78
2022/01/04 05:29:31;;;;;;;2.20;1.83;;;10.80;99.90;;;;;;4991922;28;20990;-79
2022/01/04 05:31:58;;;;;;;2.23;1.90;;;10.80;99.90;;;;;;4992222;28;20509;-79
2022/01/04 05:34:25;;;;;;;2.00;1.70;;;10.80;99.90;;;;;;4992426;28;20549;-79
2022/01/04 05:36:54;;;;;;;2.67;2.10;;;10.80;99.90;;;;;;4995664;28;20474;-80
2022/01/04 05:39:20;;;;;;;2.10;1.47;;;10.80;99.90;;;;;;4995922;28;20557;-79
2022/01/04 05:41:48;;;;;;;1.60;1.50;;;10.80;99.90;;;;;;4996052;28;20461;-78
2022/01/04 05:44:15;;;;;;;2.17;1.90;;;10.80;99.90;;;;;;4995997;28;20451;-79
2022/01/04 05:46:42;;;;;;;2.10;1.90;;;10.80;99.90;;;;;;4995805;28;20585;-78
2022/01/04 05:49:08;;;;;;;3.50;1.80;;;10.80;99.90;;;;;;4995452;28;21031;-79
2022/01/04 05:51:35;;;;;;;2.37;1.60;;;10.80;99.90;;;;;;4995729;28;21077;-79
2022/01/04 05:54:04;;;;;;;1.60;1.50;;;10.70;99.90;;;;;;4996034;28;21157;-78
2022/01/04 05:56:31;;;;;;;2.53;1.60;;;10.70;99.90;;;;;;4995745;28;20453;-79
2022/01/04 05:58:57;;;;;;;1.60;1.50;;;10.70;99.90;;;;;;4995586;28;20521;-78
2022/01/04 06:01:24;;;;;;;2.53;1.50;;;10.70;99.90;;;;;;4995079;28;20489;-78
2022/01/04 06:03:51;;;;;;;1.73;1.63;;;10.70;99.90;;;;;;4995450;28;20533;-79
2022/01/04 06:06:19;;;;;;;2.40;1.50;;;10.70;99.90;;;;;;4995798;28;20487;-78
2022/01/04 06:08:46;;;;;;;1.60;1.50;;;10.70;99.90;;;;;;4995635;28;20546;-78
2022/01/04 06:11:30;;;;;;;1.60;1.50;;;10.70;99.90;;;;;;4995327;28;20470;-78
2022/01/04 06:16:42;;;;;;;1.60;1.50;;;10.70;99.90;;;;;;4995465;28;20809;-79
2022/01/04 06:19:08;;;;;;;3.77;2.07;;;10.70;99.90;;;;;;4994957;28;20547;-78
2022/01/04 06:21:35;;;;;;;2.50;1.30;;;10.70;99.90;;;;;;4995060;28;20945;-80
2022/01/04 06:24:02;;;;;;;1.20;1.20;;;10.60;99.90;;;;;;4995241;28;20533;-78
2022/01/04 06:26:31;;;;;;;1.97;1.70;;;10.60;99.90;;;;;;4995086;28;20559;-78
2022/01/04 06:28:58;;;;;;;3.47;1.60;;;10.70;99.90;;;;;;4995109;28;20542;-78
2022/01/04 06:31:26;;;;;;;1.40;1.30;;;10.70;99.90;;;;;;4995127;28;20473;-79
2022/01/04 06:33:53;;;;;;;1.53;1.43;;;10.80;99.90;;;;;;4994976;28;20461;-78
2022/01/04 06:36:20;;;;;;;2.13;1.93;;;10.80;99.90;;;;;;4995144;28;20899;-80
2022/01/04 06:38:47;;;;;;;4.67;1.80;;;10.80;99.90;;;;;;4995154;28;20531;-78
2022/01/04 06:41:14;;;;;;;2.33;1.60;;;10.90;99.90;;;;;;4995051;28;20902;-79
2022/01/04 06:43:42;;;;;;;5.63;1.73;;;10.90;99.90;;;;;;4994863;28;20550;-79
2022/01/04 06:46:11;;;;;;;5.93;1.50;;;10.90;99.90;;;;;;4994709;28;20894;-79
2022/01/04 06:48:38;;;;;;;1.90;1.80;;;10.90;99.90;;;;;;4994151;28;20463;-79
2022/01/04 06:51:05;;;;;;;3.60;1.90;;;10.80;99.90;;;;;;4994525;28;20474;-78
2022/01/04 06:53:32;;;;;;;1.80;1.70;;;10.80;99.90;;;;;;4994859;28;20876;-79
2022/01/04 06:55:59;;;;;;;3.73;2.00;;;10.80;99.90;;;;;;4994392;28;20546;-79
2022/01/04 06:58:26;;;;;;;1.93;1.60;;;10.80;99.90;;;;;;4994477;28;20542;-82
2022/01/04 07:00:55;;;;;;;2.47;1.40;;;10.80;99.90;;;;;;4993803;28;20517;-79
2022/01/04 07:03:22;;;;;;;3.00;1.70;;;10.70;99.90;;;;;;4994655;28;20969;-79
2022/01/04 07:05:49;;;;;;;1.70;1.60;;;10.80;99.90;;;;;;4994493;28;20534;-79
2022/01/04 07:08:16;;;;;;;2.10;1.90;;;10.80;99.90;;;;;;4994429;28;20494;-79
2022/01/04 07:10:43;;;;;;;2.27;2.07;;;10.80;99.90;;;;;;4994348;28;20554;-80
2022/01/04 07:13:10;;;;;;;1.70;1.60;;;10.80;99.90;;;;;;4994460;28;21019;-79
2022/01/04 07:15:37;;;;;;;3.90;1.90;;;10.80;99.90;;;;;;4994497;28;20530;-76
2022/01/04 07:18:06;;;;;;;2.73;2.10;;;10.70;99.90;;;;;;4994131;28;20451;-77
2022/01/04 07:20:33;;;;;;;5.13;2.00;;;10.80;99.90;;;;;;4993965;28;20478;-76
2022/01/04 07:23:00;;;;;;;2.50;1.80;;;10.70;99.90;;;;;;4993854;28;20490;-77
2022/01/04 07:25:27;;;;;;;3.07;2.10;;;10.70;99.90;;;;;;4993917;28;20538;-76
2022/01/04 07:27:54;;;;;;;2.13;1.90;;;10.70;99.90;;;;;;4993847;28;21003;-76
2022/01/04 07:30:21;;;;;;;4.20;2.20;;;10.70;99.90;;;;;;4993663;28;20530;-77
2022/01/04 07:32:48;;;;;;;1.93;1.60;;;10.70;99.90;;;;;;4994249;28;20451;-77
2022/01/04 07:35:16;;;;;;;1.80;1.70;;;10.70;99.90;;;;;;4993833;28;20497;-76
2022/01/04 07:37:43;;;;;;;1.70;1.60;;;10.70;99.90;;;;;;4993745;28;20951;-76
2022/01/04 07:40:11;;;;;;;2.47;1.80;;;10.70;99.90;;;;;;4993665;28;20478;-77
2022/01/04 07:42:38;;;;;;;2.57;2.00;;;10.70;99.90;;;;;;4993622;28;20541;-77
2022/01/04 07:45:06;;;;;;;2.83;1.77;;;10.70;99.90;;;;;;4993560;28;20970;-76
2022/01/04 07:47:33;;;;;;;1.80;1.70;;;10.70;99.90;;;;;;4993555;28;20581;-77
2022/01/04 07:49:59;;;;;;;4.80;2.30;;;10.70;99.90;;;;;;4993171;28;20881;-76
2022/01/04 07:52:28;;;;;;;2.20;2.00;;;10.70;99.90;;;;;;4993635;28;20551;-77
2022/01/04 07:54:55;;;;;;;2.80;1.83;;;10.70;99.90;;;;;;4993614;28;20494;-76
2022/01/04 07:57:21;;;;;;;2.80;2.00;;;10.70;99.90;;;;;;4993294;28;20538;-76
2022/01/04 07:59:48;;;;;;;3.47;2.23;;;10.80;99.90;;;;;;4992829;28;20542;-77
2022/01/04 08:02:16;;;;;;;4.07;3.10;;;10.80;99.90;;;;;;4992836;28;21024;-77
2022/01/04 08:04:42;;;;;;;3.00;2.30;;;10.80;99.90;;;;;;4993142;28;20466;-77
2022/01/04 08:07:09;;;;;;;2.80;2.37;;;10.80;99.90;;;;;;4993397;28;20577;-77
2022/01/04 08:09:38;;;;;;;3.50;2.13;;;10.80;99.90;;;;;;4993184;28;20538;-77
2022/01/04 08:12:05;;;;;;;2.70;2.33;;;10.90;99.90;;;;;;4993194;28;20565;-76
2022/01/04 08:14:32;;;;;;;2.67;2.03;;;10.90;99.90;;;;;;4993125;28;20550;-77
2022/01/04 08:16:59;;;;;;;1.87;1.77;;;10.90;99.90;;;;;;4993062;28;20538;-77
2022/01/04 08:19:26;;;;;;;3.13;1.60;;;11.00;99.90;;;;;;4992659;28;20531;-76
2022/01/04 08:21:53;;;;;;;3.23;1.70;;;11.00;99.90;;;;;;4993112;28;20475;-76
2022/01/04 08:24:20;;;;;;;2.40;2.10;;;11.00;99.90;;;;;;4992806;28;21020;-77
2022/01/04 08:26:48;;;;;;;3.53;1.90;;;11.10;99.90;;;;;;4992704;28;20494;-77
2022/01/04 08:29:15;;;;;;;1.93;1.80;;;11.10;99.90;;;;;;4992638;28;20447;-76
2022/01/04 08:31:42;;;;;;;1.93;1.83;;;11.10;99.90;;;;;;4992613;28;20511;-77
2022/01/04 08:34:09;;;;;;;4.60;2.40;;;11.10;99.90;;;;;;4992934;28;20876;-77
2022/01/04 08:36:38;;;;;;;2.00;1.47;;;11.10;99.90;;;;;;4993163;28;20545;-76
2022/01/04 08:39:05;;;;;;;2.20;1.90;;;11.10;99.90;;;;;;4992659;28;20483;-77
2022/01/04 08:41:31;;;;;;;2.10;1.90;;;11.20;99.90;;;;;;4992672;28;20481;-77
2022/01/04 08:44:00;;;;;;;2.97;1.90;;;11.20;99.90;;;;;;4992585;28;20614;-77
2022/01/04 08:46:27;;;;;;;2.00;1.80;;;11.20;99.90;;;;;;4992412;28;20455;-77
2022/01/04 08:48:53;;;;;;;2.97;2.33;;;11.20;99.90;;;;;;4992262;28;21077;-76
2022/01/04 08:51:20;;;;;;;2.90;2.60;;;11.20;99.90;;;;;;4992660;28;20682;-77
2022/01/04 08:53:47;;;;;;;2.37;2.10;;;11.20;99.90;;;;;;4992985;28;20447;-77
2022/01/04 08:56:18;;;;;;;2.00;1.73;;;11.30;99.90;;;;;;4992540;28;20539;-77
2022/01/04 08:58:45;;;;;;;2.33;1.60;;;11.30;99.90;;;;;;4992187;28;20458;-77
2022/01/04 09:01:13;;;;;;;2.03;1.50;;;11.30;99.90;;;;;;4992006;28;21333;-77
2022/01/04 09:03:40;;;;;;;2.10;1.70;;;11.20;99.90;;;;;;4992581;28;20542;-76
2022/01/04 09:06:08;;;;;;;2.03;1.70;;;11.20;99.90;;;;;;4992621;28;20551;-76
2022/01/04 09:08:36;;;;;;;1.80;1.50;;;11.20;99.90;;;;;;4992284;28;20495;-77
2022/01/04 09:11:03;;;;;;;1.50;1.40;;;11.30;99.90;;;;;;4994597;28;21053;-76
2022/01/04 09:13:35;;;;;;;2.03;1.70;;;11.30;99.90;;;;;;4996345;28;20450;-76
2022/01/04 09:18:49;;;;;;;3.00;1.70;;;11.30;99.90;;;;;;4996362;28;20430;-77
2022/01/04 09:21:18;;;;;;;5.63;1.60;;;11.40;99.90;;;;;;4996383;28;20462;-77
2022/01/04 09:23:47;;;;;;;1.70;1.60;;;11.40;99.90;;;;;;4996392;28;20475;-76
2022/01/04 09:26:15;;;;;;;1.97;1.70;;;11.50;99.90;;;;;;4996431;28;20537;-77
2022/01/04 09:28:43;;;;;;;4.00;1.50;;;11.50;99.90;;;;;;4996182;28;20529;-77
2022/01/04 09:31:11;;;;;;;1.40;1.30;;;11.50;99.90;;;;;;4996077;28;20482;-77
2022/01/04 09:33:38;;;;;;;1.37;1.27;;;11.60;99.90;;;;;;4995989;28;20533;-77
2022/01/04 09:36:07;;;;;;;3.80;1.60;;;11.60;99.90;;;;;;4995996;28;20487;-76
2022/01/04 09:38:34;;;;;;;1.40;1.30;;;11.60;99.90;;;;;;4995764;28;20455;-77
2022/01/04 09:41:01;;;;;;;1.43;1.17;;;11.60;99.90;;;;;;4995745;28;21021;-77
2022/01/04 09:43:28;;;;;;;2.03;1.60;;;11.70;99.90;;;;;;4996051;28;20542;-77
2022/01/04 09:45:54;;;;;;;1.73;1.63;;;11.80;99.90;;;;;;4995996;28;20450;-77
2022/01/04 09:48:21;;;;;;;1.40;1.30;;;11.80;99.90;;;;;;4995710;28;20490;-76
2022/01/04 09:50:49;;;;;;;2.30;1.50;;;11.80;99.90;;;;;;4995411;28;20533;-76
2022/01/04 09:53:20;;;;;;;1.70;1.60;;;11.80;99.90;;;;;;4995867;28;20570;-77
2022/01/04 09:55:49;;;;;;;2.53;1.40;;;11.80;99.90;;;;;;4995813;28;20455;-77
2022/01/04 09:58:18;;;;;;;2.50;1.60;;;11.90;99.90;;;;;;4995650;28;20548;-77
2022/01/04 10:00:45;;;;;;;3.07;1.97;;;11.80;99.90;;;;;;4995138;28;20860;-77
2022/01/04 10:03:14;;;;;;;1.67;1.57;;;11.80;99.90;;;;;;4995550;28;20545;-77
2022/01/04 10:05:42;;;;;;;1.93;1.60;;;11.90;99.90;;;;;;4995495;28;20554;-77
2022/01/04 10:08:10;;;;;;;3.37;1.40;;;11.80;99.90;;;;;;4996049;28;20585;-77
2022/01/04 10:10:41;;;;;;;2.37;1.60;;;11.90;99.90;;;;;;4994997;28;20485;-77
2022/01/04 10:13:15;;;;;;;2.90;1.60;;;11.90;99.90;;;;;;4995356;28;20486;-77
2022/01/04 10:15:44;;;;;;;2.43;1.50;;;11.90;99.90;;;;;;4995339;28;20545;-77
2022/01/04 10:18:24;;;;;;;2.50;1.50;;;11.90;99.90;;;;;;4995111;28;20951;-77
2022/01/04 10:21:12;;;;;;;1.70;1.40;;;11.90;99.90;;;;;;4995080;28;20475;-76
2022/01/04 10:23:47;;;;;;;3.03;1.80;;;11.90;99.90;;;;;;4995379;28;20470;-77
2022/01/04 10:26:16;;;;;;;2.43;1.40;;;11.90;99.90;;;;;;4995493;28;20534;-77
2022/01/04 10:28:45;;;;;;;2.30;1.50;;;11.90;99.90;;;;;;4995142;28;20577;-77
2022/01/04 10:31:14;;;;;;;2.90;1.50;;;12.00;99.90;;;;;;4995049;28;20840;-76
2022/01/04 10:33:41;;;;;;;1.83;1.47;;;11.90;99.90;;;;;;4995057;28;20550;-77
2022/01/04 10:36:12;;;;;;;2.83;1.63;;;12.00;99.90;;;;;;4995025;28;20534;-77
2022/01/04 10:38:41;;;;;;;1.60;1.50;;;12.00;99.90;;;;;;4994759;28;20454;-77
2022/01/04 10:41:10;;;;;;;1.47;1.37;;;12.00;99.90;;;;;;4994779;28;20974;-77
2022/01/04 10:43:41;;;;;;;1.50;1.20;;;12.00;99.90;;;;;;4994934;28;20451;-77
2022/01/04 10:46:09;;;;;;;6.33;1.30;;;12.00;99.90;;;;;;4994968;28;20483;-77
2022/01/04 10:48:39;;;;;;;1.93;1.43;;;12.00;99.90;;;;;;4994632;28;20526;-77
2022/01/04 10:51:08;;;;;;;3.00;1.30;;;12.10;99.90;;;;;;4994473;28;21006;-76
2022/01/04 10:53:38;;;;;;;1.57;1.40;;;12.10;99.90;;;;;;4994670;28;20523;-77
2022/01/04 10:56:07;;;;;;;2.50;1.50;;;12.10;99.90;;;;;;4994629;28;20454;-77
2022/01/04 10:58:37;;;;;;;1.70;1.50;;;12.10;99.90;;;;;;4994568;28;20447;-76
2022/01/04 11:01:08;;;;;;;2.17;1.43;;;12.20;99.90;;;;;;4994006;28;20483;-77
2022/01/04 11:03:37;;;;;;;2.10;1.70;;;12.20;99.90;;;;;;4994387;28;20538;-76
2022/01/04 11:06:13;;;;;;;1.40;1.30;;;12.20;99.90;;;;;;4994410;28;20487;-76
2022/01/04 11:08:41;;;;;;;1.50;1.40;;;12.20;99.90;;;;;;4994110;28;21097;-76
2022/01/04 11:11:08;;;;;;;3.33;1.40;;;12.20;99.90;;;;;;4994282;28;20518;-77
2022/01/04 11:13:35;;;;;;;3.77;1.57;;;12.20;99.90;;;;;;4994315;28;20479;-77
2022/01/04 11:16:03;;;;;;;4.67;1.63;;;12.20;99.90;;;;;;4994822;28;20525;-77
2022/01/04 11:18:32;;;;;;;3.33;1.80;;;12.20;99.90;;;;;;4994338;28;20497;-77
2022/01/04 11:20:59;;;;;;;1.70;1.43;;;12.20;99.90;;;;;;4994221;28;20549;-77
2022/01/04 11:23:29;;;;;;;1.97;1.80;;;12.20;99.90;;;;;;4994102;28;20459;-77
2022/01/04 11:25:58;;;;;;;1.50;1.40;;;12.30;99.90;;;;;;4994148;28;20489;-77
2022/01/04 11:28:26;;;;;;;1.80;1.60;;;12.20;99.90;;;;;;4993816;28;20517;-77
2022/01/04 11:31:09;;;;;;;10.63;1.90;;;12.20;99.90;;;;;;4993424;28;20558;-77
2022/01/04 11:33:50;;;;;;;2.03;1.70;;;12.20;99.90;;;;;;4993145;28;20458;-76
2022/01/04 11:36:19;;;;;;;1.50;1.40;;;12.20;99.90;;;;;;4994046;28;20542;-76
2022/01/04 11:38:46;;;;;;;1.97;1.77;;;12.20;99.90;;;;;;4993488;28;20458;-78
2022/01/04 11:41:22;;;;;;;2.90;1.50;;;12.20;99.90;;;;;;4993545;28;20513;-77
2022/01/04 11:43:50;;;;;;;3.13;1.80;;;12.20;99.90;;;;;;4994075;28;20538;-77
2022/01/04 11:46:35;;;;;;;2.70;1.80;;;12.20;99.90;;;;;;4993743;28;20890;-77
2022/01/04 11:49:11;;;;;;;2.87;1.60;;;12.20;99.90;;;;;;4993224;28;20537;-76
2022/01/04 11:51:41;;;;;;;2.10;1.83;;;12.20;99.90;;;;;;4993355;28;20828;-76
2022/01/04 11:54:20;;;;;;;3.93;2.20;;;12.20;99.90;;;;;;4993891;28;20466;-76
2022/01/04 11:56:53;;;;;;;3.47;1.87;;;12.20;99.90;;;;;;4993320;28;20445;-77
2022/01/04 11:59:23;;;;;;;1.70;1.60;;;12.20;99.90;;;;;;4993183;28;20541;-77
2022/01/04 12:01:50;;;;;;;4.90;2.10;;;12.30;99.90;;;;;;4993047;28;20562;-77
2022/01/04 12:04:49;;;;;;;6.20;1.50;;;12.20;99.90;;;;;;4993162;28;20538;-77
2022/01/04 12:07:44;;;;;;;2.10;1.60;;;12.30;99.90;;;;;;4970403;28;20455;-77
2022/01/04 12:10:38;;;;;;;3.30;2.20;;;12.20;99.90;;;;;;4992899;28;20495;-78
2022/01/04 12:13:09;;;;;;;2.03;1.83;;;12.20;99.90;;;;;;4983730;28;20550;-77
2022/01/04 12:15:57;;;;;;;2.37;1.83;;;12.30;99.90;;;;;;4993301;28;20517;-77
2022/01/04 12:19:00;;;;;;;2.10;1.70;;;12.20;99.90;;;;;;4993103;28;20501;-77
2022/01/04 12:21:43;;;;;;;3.23;1.83;;;12.30;99.90;;;;;;4993069;28;20533;-77
2022/01/04 12:24:13;;;;;;;2.07;1.87;;;12.30;99.90;;;;;;4993133;28;20466;-77
2022/01/04 12:26:41;;;;;;;1.97;1.70;;;12.30;99.90;;;;;;4993161;28;20456;-76
2022/01/04 12:29:31;;;;;;;3.00;1.60;;;12.30;99.90;;;;;;4992970;28;20525;-77
2022/01/04 12:32:04;;;;;;;3.47;1.90;;;12.30;99.90;;;;;;4992940;28;20486;-77
2022/01/04 12:34:39;;;;;;;2.70;1.83;;;12.30;99.90;;;;;;4993238;28;20466;-77
2022/01/04 12:37:15;;;;;;;2.17;1.97;;;12.30;99.90;;;;;;4992895;28;20482;-78
2022/01/04 12:39:43;;;;;;;2.23;1.90;;;12.30;99.90;;;;;;4992277;28;20501;-77
2022/01/04 12:42:12;;;;;;;3.13;1.93;;;12.30;99.90;;;;;;4992668;28;21053;-77
2022/01/04 12:44:39;;;;;;;3.63;2.00;;;12.30;99.90;;;;;;4991781;28;20963;-77
2022/01/04 12:47:09;;;;;;;1.90;1.70;;;12.20;99.90;;;;;;4992851;28;20538;-76
2022/01/04 12:49:37;;;;;;;2.43;1.80;;;12.20;99.90;;;;;;4992292;28;20491;-77
2022/01/04 12:52:10;;;;;;;2.77;1.73;;;12.20;99.90;;;;;;4992369;28;20463;-77
2022/01/04 12:54:39;;;;;;;2.20;1.67;;;12.20;99.90;;;;;;4992699;28;20454;-77
2022/01/04 12:57:07;;;;;;;2.20;1.93;;;12.20;99.90;;;;;;4992630;28;20539;-77
2022/01/04 12:59:40;;;;;;;2.63;1.87;;;12.20;99.90;;;;;;4992427;28;20478;-77
2022/01/04 13:02:15;;;;;;;2.93;2.00;;;12.10;99.90;;;;;;4992304;28;20517;-77
2022/01/04 13:04:45;;;;;;;4.00;2.20;;;12.10;99.90;;;;;;4992318;28;20451;-77
2022/01/04 13:07:17;;;;;;;2.33;1.90;;;12.10;99.90;;;;;;4992441;28;20454;-76
2022/01/04 13:09:50;;;;;;;3.10;2.20;;;12.10;99.90;;;;;;4992130;28;21077;-77
2022/01/04 13:12:20;;;;;;;2.30;2.10;;;12.00;99.90;;;;;;4992441;28;20482;-77
2022/01/04 13:14:47;;;;;;;2.77;2.13;;;12.00;99.90;;;;;;4992381;28;20447;-78
2022/01/04 13:17:14;;;;;;;6.20;2.77;;;12.00;99.90;;;;;;4992264;28;20828;-77
2022/01/04 13:19:43;;;;;;;4.03;2.27;;;12.00;99.90;;;;;;4992342;28;20497;-77
2022/01/04 13:22:13;;;;;;;3.73;2.20;;;12.00;99.90;;;;;;4992220;28;20510;-77
2022/01/04 13:24:43;;;;;;;3.37;2.00;;;11.90;99.90;;;;;;4992474;28;20450;-77
2022/01/04 13:27:32;;;;;;;3.40;2.37;;;11.90;99.90;;;;;;4992176;28;20955;-77
2022/01/04 13:30:01;;;;;;;3.60;2.20;;;11.90;99.90;;;;;;4989146;28;20497;-77
2022/01/04 13:32:31;;;;;;;4.20;2.77;;;11.90;99.90;;;;;;4992016;28;21058;-77
2022/01/04 13:35:01;;;;;;;3.07;2.77;;;11.90;99.90;;;;;;4992185;28;20904;-77
2022/01/04 13:37:28;;;;;;;3.73;2.57;;;11.80;99.90;;;;;;4992235;28;20451;-77
2022/01/04 13:39:56;;;;;;;5.23;2.50;;;11.80;99.90;;;;;;4991757;28;20539;-77
2022/01/04 13:42:35;;;;;;;4.60;2.90;;;11.70;99.90;;;;;;4992305;28;20503;-77
2022/01/04 13:45:10;;;;;;;4.00;2.80;;;11.70;99.90;;;;;;4992199;28;20451;-79
2022/01/04 13:47:39;;;;;;;6.20;1.73;;;11.70;99.90;;;;;;4991992;28;20454;-76
2022/01/04 13:50:23;;;;;;;1.40;1.30;;;11.50;99.90;;;;;;4991800;28;20526;-75
2022/01/04 13:53:05;;;;;;;3.83;1.50;;;10.90;99.90;;;;;;4991889;28;20777;-76
2022/01/04 13:55:59;;;;;;;30.73;22.53;;;10.50;99.90;;;;;;4992179;28;20487;-75
2022/01/04 13:58:49;;;;;;;16.37;11.13;;;10.30;99.90;;;;;;4996128;28;20509;-76
2022/01/04 14:01:21;;;;;;;41.40;31.53;;;10.20;99.90;;;;;;4995403;28;20857;-76
2022/01/04 14:03:50;;;;;;;98.07;62.37;;;10.00;99.90;;;;;;4995707;28;20540;-76
2022/01/04 14:06:39;;;;;;;17.40;15.83;;;9.60;99.90;;;;;;4995662;28;20450;-76
2022/01/04 14:09:11;;;;;;;82.90;51.57;;;9.30;99.90;;;;;;4995128;28;20502;-77
2022/01/04 14:11:44;;;;;;;27.63;21.73;;;9.20;99.90;;;;;;4995410;28;20502;-77
2022/01/04 14:14:14;;;;;;;72.93;55.17;;;9.00;99.90;;;;;;4995372;28;20537;-77
2022/01/04 14:16:43;;;;;;;63.47;43.90;;;8.90;99.90;;;;;;4995284;28;20994;-77
2022/01/04 14:19:13;;;;;;;35.43;26.53;;;8.70;99.90;;;;;;4995408;28;20513;-77
2022/01/04 14:21:42;;;;;;;45.43;36.57;;;8.70;99.90;;;;;;4994998;28;20595;-77
2022/01/04 14:24:39;;;;;;;20.63;18.43;;;8.70;99.90;;;;;;4995471;28;20470;-77
2022/01/04 14:27:10;;;;;;;14.97;13.47;;;8.60;99.90;;;;;;4972231;28;20513;-77
2022/01/04 14:29:39;;;;;;;16.97;15.30;;;8.60;99.90;;;;;;4995217;28;20582;-77
2022/01/04 14:32:08;;;;;;;14.63;11.30;;;8.60;99.90;;;;;;4994831;28;20463;-77
2022/01/04 14:34:35;;;;;;;8.00;4.77;;;8.60;99.90;;;;;;4995176;28;20876;-77
2022/01/04 14:37:02;;;;;;;8.50;7.77;;;8.60;99.90;;;;;;4995157;28;20539;-77
2022/01/04 14:39:29;;;;;;;6.23;5.67;;;8.50;99.90;;;;;;4994819;28;20505;-77
2022/01/04 14:41:57;;;;;;;6.43;5.67;;;8.40;99.90;;;;;;4994935;28;20855;-77
2022/01/04 14:44:26;;;;;;;6.03;5.43;;;8.40;99.90;;;;;;4994775;28;20467;-77
2022/01/04 14:46:53;;;;;;;11.40;10.33;;;8.40;99.90;;;;;;4994640;28;20489;-77
2022/01/04 14:49:20;;;;;;;5.83;5.33;;;8.30;99.90;;;;;;4994535;28;20579;-77
2022/01/04 14:51:48;;;;;;;9.33;8.43;;;8.20;99.90;;;;;;4994820;28;20562;-78
2022/01/04 14:54:15;;;;;;;10.20;9.20;;;8.10;99.90;;;;;;4994666;28;20882;-77
2022/01/04 14:56:43;;;;;;;7.10;6.40;;;8.10;99.90;;;;;;4994729;28;20455;-77
2022/01/04 14:59:10;;;;;;;6.90;4.90;;;8.10;99.90;;;;;;4994177;28;20510;-78
2022/01/04 15:01:40;;;;;;;9.13;5.70;;;8.20;99.90;;;;;;4994351;28;20569;-77
2022/01/04 15:04:08;;;;;;;7.17;5.73;;;8.10;99.90;;;;;;4994650;28;21113;-77
2022/01/04 15:06:35;;;;;;;9.27;8.37;;;8.10;99.90;;;;;;4994451;28;20970;-77
2022/01/04 15:09:02;;;;;;;7.43;6.07;;;8.10;99.90;;;;;;4993335;28;20537;-77
2022/01/04 15:11:30;;;;;;;7.10;6.00;;;8.00;99.90;;;;;;4994261;28;21025;-77
2022/01/04 15:13:58;;;;;;;13.40;9.60;;;8.00;99.90;;;;;;4994069;28;20939;-77
2022/01/04 15:16:25;;;;;;;7.13;6.43;;;8.00;99.90;;;;;;4994463;28;20439;-77
2022/01/04 15:18:53;;;;;;;9.90;8.90;;;8.00;99.90;;;;;;4993521;28;20528;-77
2022/01/04 15:21:21;;;;;;;16.50;15.00;;;8.00;99.90;;;;;;4993975;28;20708;-78
2022/01/04 15:23:48;;;;;;;29.90;26.77;;;8.00;99.90;;;;;;4994393;28;21003;-77
2022/01/04 15:26:16;;;;;;;7.13;6.43;;;8.00;99.90;;;;;;4993866;28;20538;-77
2022/01/04 15:28:43;;;;;;;9.27;8.10;;;7.90;99.90;;;;;;4994158;28;20530;-77
2022/01/04 15:31:11;;;;;;;11.40;10.20;;;7.90;99.90;;;;;;4993794;28;20544;-78
2022/01/04 15:33:38;;;;;;;11.80;10.40;;;8.00;99.90;;;;;;4993800;28;20510;-77
2022/01/04 15:36:09;;;;;;;36.90;27.87;;;7.90;99.90;;;;;;4993922;28;20482;-77
2022/01/04 15:38:37;;;;;;;38.60;30.20;;;7.80;99.90;;;;;;4993768;28;20477;-77
2022/01/04 15:41:05;;;;;;;35.30;26.67;;;7.70;99.90;;;;;;4993314;28;20475;-78
2022/01/04 15:43:32;;;;;;;11.07;9.17;;;7.70;99.90;;;;;;4993715;28;20538;-77
2022/01/04 15:46:01;;;;;;;17.83;15.93;;;7.70;99.90;;;;;;4993886;28;20546;-76
2022/01/04 15:48:28;;;;;;;13.40;12.10;;;7.70;99.90;;;;;;4993532;28;21038;-77
2022/01/04 15:50:55;;;;;;;10.00;9.10;;;7.60;99.90;;;;;;4993221;28;20577;-78
2022/01/04 15:53:24;;;;;;;10.60;7.87;;;7.60;99.90;;;;;;4993352;28;20451;-77
2022/01/04 15:55:52;;;;;;;17.90;16.10;;;7.60;99.90;;;;;;4994023;28;20982;-77
2022/01/04 15:58:19;;;;;;;28.57;25.90;;;7.60;99.90;;;;;;4993575;28;20530;-78
2022/01/04 16:00:47;;;;;;;10.80;9.70;;;7.60;99.90;;;;;;4992851;28;20561;-77
2022/01/04 16:03:14;;;;;;;8.83;7.20;;;7.50;99.90;;;;;;4993736;28;20455;-77
2022/01/04 16:05:41;;;;;;;7.03;6.33;;;7.40;99.90;;;;;;4993265;28;20478;-77
2022/01/04 16:08:09;;;;;;;8.23;7.50;;;7.40;99.90;;;;;;4993096;28;20939;-77
2022/01/04 16:10:37;;;;;;;8.97;8.10;;;7.30;99.90;;;;;;4992890;28;20530;-77
2022/01/04 16:13:04;;;;;;;3.47;3.27;;;7.30;99.90;;;;;;4994048;28;20486;-80
2022/01/04 16:15:43;;;;;;;3.30;3.07;;;7.40;99.90;;;;;;4995515;28;20490;-80
2022/01/04 16:18:29;;;;;;;13.73;12.33;;;7.30;99.90;;;;;;4994561;28;20807;-80
2022/01/04 16:23:54;;;;;;;14.03;11.67;;;7.20;99.90;;;;;;4995035;28;20442;-80
2022/01/04 16:26:23;;;;;;;5.37;4.87;;;7.10;99.90;;;;;;4994324;28;20451;-78
2022/01/04 16:28:58;;;;;;;6.27;5.67;;;7.20;99.90;;;;;;4992782;28;20531;-78
2022/01/04 16:31:25;;;;;;;15.77;13.70;;;7.20;99.90;;;;;;4992756;28;20573;-78
2022/01/04 16:33:52;;;;;;;5.30;4.70;;;7.20;99.90;;;;;;4993278;28;20599;-78
2022/01/04 16:36:26;;;;;;;13.17;9.97;;;7.20;99.90;;;;;;4992889;28;20490;-79
2022/01/04 16:38:53;;;;;;;13.37;11.17;;;7.10;99.90;;;;;;4992722;28;20442;-79
2022/01/04 16:41:20;;;;;;;10.60;8.70;;;7.10;99.90;;;;;;4992548;28;20541;-79
2022/01/04 16:43:48;;;;;;;12.10;10.93;;;7.10;99.90;;;;;;4992917;28;20557;-79
2022/01/04 16:46:16;;;;;;;19.40;17.60;;;7.00;99.90;;;;;;4992835;28;20514;-79
2022/01/04 16:48:43;;;;;;;4.17;3.83;;;6.90;99.90;;;;;;4992697;28;20475;-79
2022/01/04 16:51:09;;;;;;;4.37;3.97;;;6.80;99.90;;;;;;4992409;28;20498;-79
2022/01/04 16:53:36;;;;;;;10.30;6.80;;;6.80;99.90;;;;;;4993025;28;20486;-78
2022/01/04 16:56:04;;;;;;;43.20;23.47;;;6.80;99.90;;;;;;4992268;28;20491;-78
2022/01/04 16:58:31;;;;;;;6.27;4.23;;;6.60;99.90;;;;;;4992750;28;20498;-78
2022/01/04 17:00:59;;;;;;;11.80;7.10;;;6.60;99.90;;;;;;4992236;28;20490;-78
2022/01/04 17:03:26;;;;;;;4.13;3.87;;;6.60;99.90;;;;;;4992597;28;20534;-79
2022/01/04 17:05:53;;;;;;;6.83;4.67;;;6.60;99.90;;;;;;4992564;28;20479;-78
2022/01/04 17:08:20;;;;;;;4.50;3.73;;;6.60;99.90;;;;;;4992268;28;20970;-79
2022/01/04 17:10:57;;;;;;;3.10;2.43;;;6.70;99.90;;;;;;4992229;28;20586;-80
2022/01/04 17:16:10;;;;;;;4.43;3.70;;;6.70;99.90;;;;;;4997934;28;20421;-79
2022/01/04 17:18:37;;;;;;;16.03;13.53;;;6.80;99.90;;;;;;4998300;28;20458;-79
2022/01/04 17:21:04;;;;;;;6.10;5.53;;;6.80;99.90;;;;;;4997567;28;20506;-78
2022/01/04 17:23:31;;;;;;;8.37;7.47;;;6.90;99.90;;;;;;4996869;28;20466;-79
2022/01/04 17:25:58;;;;;;;6.10;5.50;;;6.90;99.90;;;;;;4997009;28;20964;-79
2022/01/04 17:28:24;;;;;;;6.73;4.97;;;6.90;99.90;;;;;;4996145;28;20494;-79
2022/01/04 17:30:51;;;;;;;26.80;19.50;;;6.90;99.90;;;;;;4995410;28;20527;-79
2022/01/04 17:33:20;;;;;;;14.43;11.20;;;6.90;99.90;;;;;;4998895;28;20542;-78
2022/01/04 17:35:47;;;;;;;4.83;3.33;;;6.80;99.90;;;;;;4998928;28;20494;-78
2022/01/04 17:38:14;;;;;;;27.20;19.50;;;6.70;99.90;;;;;;4998912;28;20490;-80
2022/01/04 17:40:41;;;;;;;9.70;8.00;;;6.80;99.90;;;;;;4999465;28;20501;-78
2022/01/04 17:43:08;;;;;;;12.70;9.30;;;6.80;99.90;;;;;;4999476;28;20455;-78
2022/01/04 17:45:35;;;;;;;10.33;7.10;;;6.80;99.90;;;;;;4999157;28;20490;-79
2022/01/04 17:48:04;;;;;;;10.53;7.30;;;6.80;99.90;;;;;;4998740;28;20990;-79
2022/01/04 17:50:32;;;;;;;65.37;33.97;;;6.70;99.90;;;;;;4999454;28;20494;-78
2022/01/04 17:52:59;;;;;;;21.67;12.27;;;6.60;99.90;;;;;;4998800;28;20485;-77
2022/01/04 17:55:26;;;;;;;14.63;7.70;;;6.60;99.90;;;;;;4998762;28;20483;-78
2022/01/04 17:57:53;;;;;;;22.13;11.57;;;6.60;99.90;;;;;;4998714;28;20485;-78
2022/01/04 18:00:20;;;;;;;6.13;4.40;;;6.60;99.90;;;;;;4997409;28;20490;-78
2022/01/04 18:02:47;;;;;;;6.10;3.87;;;6.50;99.90;;;;;;4998442;28;20493;-79
2022/01/04 18:05:14;;;;;;;4.17;3.60;;;6.50;99.90;;;;;;4998871;28;20451;-79
2022/01/04 18:07:43;;;;;;;10.10;5.67;;;6.40;99.90;;;;;;4998782;28;20482;-78
2022/01/04 18:10:12;;;;;;;15.30;8.57;;;6.30;99.90;;;;;;4998266;28;20490;-79
2022/01/04 18:12:39;;;;;;;8.37;5.13;;;6.30;99.90;;;;;;4998846;28;20466;-79